createdAt,value
2024-04-24T00:02:57.986Z,93527.57
2024-04-24T00:06:30.055Z,93524.34
2024-04-24T00:08:58.580Z,93526.14
2024-04-24T00:11:27.470Z,93522.66
2024-04-24T00:13:58.970Z,93524.16
2024-04-24T00:16:27.385Z,93495.27
2024-04-24T00:19:15.655Z,93501.11
2024-04-24T00:21:44.336Z,93508.19
2024-04-24T00:24:16.974Z,93504.55
2024-04-24T00:26:45.417Z,93502.77
2024-04-24T00:29:13.655Z,93503.80
2024-04-24T00:31:49.431Z,93509.71
2024-04-24T00:34:18.137Z,93506.09
2024-04-24T00:36:52.200Z,93497.83
2024-04-24T00:39:22.988Z,93498.78
2024-04-24T00:41:51.693Z,93498.72
2024-04-24T00:45:20.257Z,93489.02
2024-04-24T00:48:50.105Z,93499.40
2024-04-24T00:51:42.430Z,93496.31
2024-04-24T00:54:10.726Z,93502.66
2024-04-24T00:56:39.995Z,93484.98
2024-04-24T00:59:11.192Z,93482.04
2024-04-24T01:01:39.970Z,93486.29
2024-04-24T01:04:13.880Z,93481.08
2024-04-24T01:06:42.143Z,93474.33
2024-04-24T01:09:10.461Z,93478.81
2024-04-24T01:11:38.639Z,93478.16
2024-04-24T01:14:07.480Z,93475.30
2024-04-24T01:16:41.000Z,93476.77
2024-04-24T01:19:42.393Z,93480.08
2024-04-24T01:22:28.280Z,93476.88
2024-04-24T01:25:29.846Z,93468.48
2024-04-24T01:28:18.149Z,93463.95
2024-04-24T01:30:49.760Z,93459.49
2024-04-24T01:33:21.411Z,93447.83
2024-04-24T01:35:50.242Z,93442.75
2024-04-24T01:38:21.534Z,93447.58
2024-04-24T01:40:52.509Z,93441.48
2024-04-24T01:43:40.961Z,93442.68
2024-04-24T01:46:12.510Z,93438.75
2024-04-24T01:48:43.710Z,93432.49
2024-04-24T01:51:30.448Z,93433.11
2024-04-24T01:54:01.774Z,93432.64
2024-04-24T01:56:32.459Z,93425.59
2024-04-24T01:59:01.056Z,93421.82
2024-04-24T02:01:50.256Z,93419.88
2024-04-24T02:04:18.521Z,93417.77
2024-04-24T02:06:49.267Z,93413.73
2024-04-24T02:09:17.255Z,93413.14
2024-04-24T02:11:51.050Z,93423.48
2024-04-24T02:14:24.870Z,93419.20
2024-04-24T02:17:09.147Z,93423.48
2024-04-24T02:19:42.477Z,93427.15
2024-04-24T02:22:11.389Z,93418.56
2024-04-24T02:25:07.650Z,93412.81
2024-04-24T02:27:41.557Z,93398.68
2024-04-24T02:30:16.199Z,93397.11
2024-04-24T02:32:44.958Z,93403.08
2024-04-24T02:35:22.019Z,93397.96
2024-04-24T02:37:50.686Z,93401.31
2024-04-24T02:40:21.626Z,93406.96
2024-04-24T02:42:50.471Z,93401.96
2024-04-24T02:45:21.808Z,93400.95
2024-04-24T02:47:53.419Z,93399.23
2024-04-24T02:50:22.147Z,93405.08
2024-04-24T02:52:51.272Z,93405.14
2024-04-24T02:55:25.163Z,93399.23
2024-04-24T02:57:56.433Z,93381.92
2024-04-24T03:00:27.474Z,93380.04
2024-04-24T03:02:59.364Z,93362.51
2024-04-24T03:05:28.350Z,93354.90
2024-04-24T03:08:31.514Z,93354.98
2024-04-24T03:11:00.182Z,93350.00
2024-04-24T03:14:00.790Z,93346.65
2024-04-24T03:16:35.307Z,93348.02
2024-04-24T03:19:09.825Z,93351.97
2024-04-24T03:21:44.048Z,93365.38
2024-04-24T03:24:15.576Z,93370.10
2024-04-24T03:27:01.225Z,93369.27
2024-04-24T03:29:41.855Z,93370.98
2024-04-24T03:32:10.690Z,93376.54
2024-04-24T03:34:47.863Z,93379.42
2024-04-24T03:37:36.749Z,93380.52
2024-04-24T03:40:05.810Z,93389.73
2024-04-24T03:42:45.208Z,93391.23
2024-04-24T03:45:16.611Z,93394.84
2024-04-24T03:47:45.015Z,93396.73
2024-04-24T03:50:16.739Z,93400.33
2024-04-24T03:52:48.207Z,93411.19
2024-04-24T03:55:19.750Z,93409.14
2024-04-24T03:57:50.303Z,93421.48
2024-04-24T04:00:24.586Z,93428.48
2024-04-24T04:02:53.005Z,93422.95
2024-04-24T04:05:24.078Z,93420.71
2024-04-24T04:08:01.689Z,93421.94
2024-04-24T04:10:29.947Z,93425.73
2024-04-24T04:12:57.983Z,93417.71
2024-04-24T04:15:26.175Z,93409.94
2024-04-24T04:17:57.952Z,93410.34
2024-04-24T04:20:26.902Z,93405.37
2024-04-24T04:23:05.697Z,93401.48
2024-04-24T04:25:34.586Z,93402.31
2024-04-24T04:28:13.921Z,93401.40
2024-04-24T04:30:42.184Z,93401.64
2024-04-24T04:33:10.817Z,93403.89
2024-04-24T04:35:39.364Z,93401.15
2024-04-24T04:38:07.629Z,93398.84
2024-04-24T04:40:38.368Z,93397.16
2024-04-24T04:43:15.749Z,93396.39
2024-04-24T04:45:43.923Z,93397.96
2024-04-24T04:48:41.429Z,93400.85
2024-04-24T04:51:21.276Z,93396.85
2024-04-24T04:54:09.748Z,93398.96
2024-04-24T04:57:46.039Z,93396.55
2024-04-24T05:01:34.873Z,93393.14
2024-04-24T05:05:06.545Z,93387.61
2024-04-24T05:08:55.519Z,93387.67
2024-04-24T05:12:21.891Z,93385.82
2024-04-24T05:15:30.974Z,93384.53
2024-04-24T05:18:25.299Z,93384.49
2024-04-24T05:21:01.463Z,93382.48
2024-04-24T05:23:54.046Z,93374.46
2024-04-24T05:27:04.303Z,93369.55
2024-04-24T05:29:55.016Z,93373.21
2024-04-24T05:32:44.026Z,93369.40
2024-04-24T05:36:04.789Z,93366.89
2024-04-24T05:39:06.375Z,93361.55
2024-04-24T05:41:59.116Z,93361.73
2024-04-24T05:44:39.143Z,93361.22
2024-04-24T05:47:45.440Z,93358.30
2024-04-24T05:50:27.082Z,93357.58
2024-04-24T05:53:21.627Z,93359.45
2024-04-24T05:56:26.291Z,93358.21
2024-04-24T05:59:57.124Z,93361.31
2024-04-24T06:03:11.194Z,93355.27
2024-04-24T06:06:27.130Z,93357.50
2024-04-24T06:09:39.790Z,93357.16
2024-04-24T06:12:21.032Z,93359.17
2024-04-24T06:15:41.347Z,93360.86
2024-04-24T06:18:46.289Z,93365.17
2024-04-24T06:22:11.422Z,93366.86
2024-04-24T06:25:24.042Z,93368.17
2024-04-24T06:28:24.224Z,93361.51
2024-04-24T06:31:21.564Z,93363.39
2024-04-24T06:34:50.291Z,93355.44
2024-04-24T06:37:18.643Z,93355.95
2024-04-24T06:40:09.870Z,93358.06
2024-04-24T06:43:03.962Z,93355.86
2024-04-24T06:46:08.183Z,93356.02
2024-04-24T06:48:57.003Z,93351.17
2024-04-24T06:51:32.568Z,93357.64
2024-04-24T06:54:04.955Z,93355.65
2024-04-24T06:56:52.303Z,93356.34
2024-04-24T06:59:58.199Z,93354.72
2024-04-24T07:02:47.829Z,93351.67
2024-04-24T07:05:33.438Z,93359.46
2024-04-24T07:08:13.498Z,93362.63
2024-04-24T07:11:01.160Z,93361.43
2024-04-24T07:13:34.817Z,93366.09
2024-04-24T07:16:42.055Z,93364.30
2024-04-24T07:19:23.926Z,93370.14
2024-04-24T07:22:15.397Z,93373.36
2024-04-24T07:25:00.225Z,93372.89
2024-04-24T07:27:51.215Z,93376.73
2024-04-24T07:30:36.329Z,93379.35
2024-04-24T07:33:49.020Z,93379.92
2024-04-24T07:36:58.168Z,93383.40
2024-04-24T07:39:43.748Z,93386.14
2024-04-24T07:42:14.914Z,93397.98
2024-04-24T07:45:01.808Z,93395.22
2024-04-24T07:47:50.376Z,93399.95
2024-04-24T07:50:31.671Z,93400.92
2024-04-24T07:53:23.504Z,93402.11
2024-04-24T07:56:21.906Z,93408.58
2024-04-24T07:59:05.393Z,93408.02
2024-04-24T08:02:02.904Z,93403.45
2024-04-24T08:05:40.619Z,93407.98
2024-04-24T08:09:22.338Z,93407.13
2024-04-24T08:12:26.989Z,93408.46
2024-04-24T08:15:29.154Z,93410.94
2024-04-24T08:18:00.441Z,93415.61
2024-04-24T08:20:28.986Z,93414.52
2024-04-24T08:22:57.376Z,93413.98
2024-04-24T08:25:46.542Z,93412.63
2024-04-24T08:28:18.505Z,93413.59
2024-04-24T08:31:14.834Z,93417.33
2024-04-24T08:34:10.136Z,93413.39
2024-04-24T08:36:38.266Z,93417.63
2024-04-24T08:39:09.694Z,93423.80
2024-04-24T08:41:45.648Z,93420.72
2024-04-24T08:44:49.200Z,93416.19
2024-04-24T08:47:43.331Z,93416.64
2024-04-24T08:50:20.139Z,93413.14
2024-04-24T08:53:03.802Z,93416.10
2024-04-24T08:55:40.819Z,93413.34
2024-04-24T08:58:19.493Z,93411.91
2024-04-24T09:00:48.722Z,93412.10
2024-04-24T09:03:52.837Z,93410.70
2024-04-24T09:06:34.312Z,93405.54
2024-04-24T09:09:03.394Z,93405.34
2024-04-24T09:11:34.937Z,93403.54
2024-04-24T09:14:07.556Z,93398.45
2024-04-24T09:16:40.145Z,93399.71
2024-04-24T09:19:08.832Z,93406.17
2024-04-24T09:21:43.442Z,93406.04
2024-04-24T09:24:23.153Z,93412.30
2024-04-24T09:27:34.273Z,93411.95
2024-04-24T09:30:15.347Z,93409.89
2024-04-24T09:33:34.465Z,93399.67
2024-04-24T09:36:14.946Z,93403.91
2024-04-24T09:38:56.065Z,93404.17
2024-04-24T09:41:48.711Z,93403.46
2024-04-24T09:44:19.847Z,93397.94
2024-04-24T09:46:52.469Z,93401.42
2024-04-24T09:49:37.536Z,93403.23
2024-04-24T09:52:30.693Z,93403.03
2024-04-24T09:55:11.961Z,93403.84
2024-04-24T09:58:00.734Z,93392.52
2024-04-24T10:00:30.038Z,93396.94
2024-04-24T10:03:47.250Z,93401.39
2024-04-24T10:06:44.047Z,93403.56
2024-04-24T10:09:27.569Z,93404.09
2024-04-24T10:12:09.966Z,93407.79
2024-04-24T10:14:42.868Z,93404.56
2024-04-24T10:17:32.834Z,93404.80
2024-04-24T10:20:12.219Z,93407.16
2024-04-24T10:22:55.563Z,93397.45
2024-04-24T10:25:33.909Z,93392.29
2024-04-24T10:28:04.987Z,93393.14
2024-04-24T10:31:18.917Z,93394.70
2024-04-24T10:34:33.770Z,93399.27
2024-04-24T10:38:08.466Z,93403.59
2024-04-24T10:41:12.749Z,93398.94
2024-04-24T10:44:04.585Z,93397.70
2024-04-24T10:46:33.585Z,93397.39
2024-04-24T10:49:12.742Z,93399.84
2024-04-24T10:51:55.753Z,93408.09
2024-04-24T10:54:53.350Z,93413.06
2024-04-24T10:57:48.223Z,93415.45
2024-04-24T11:01:03.344Z,93420.74
2024-04-24T11:03:52.123Z,93414.58
2024-04-24T11:07:05.353Z,93409.67
2024-04-24T11:10:12.366Z,93413.85
2024-04-24T11:12:47.084Z,93414.16
2024-04-24T11:15:21.272Z,93414.56
2024-04-24T11:18:12.804Z,93412.22
2024-04-24T11:20:42.205Z,93409.98
2024-04-24T11:23:10.958Z,93410.25
2024-04-24T11:25:58.475Z,93409.17
2024-04-24T11:28:34.563Z,93407.06
2024-04-24T11:31:12.379Z,93407.35
2024-04-24T11:33:50.548Z,93413.37
2024-04-24T11:36:20.030Z,93414.34
2024-04-24T11:39:12.979Z,93414.20
2024-04-24T11:41:50.790Z,93407.52
2024-04-24T11:44:22.226Z,93405.41
2024-04-24T11:47:00.159Z,93410.42
2024-04-24T11:49:29.115Z,93407.65
2024-04-24T11:52:20.181Z,93408.15
2024-04-24T11:54:58.031Z,93407.86
2024-04-24T11:57:39.209Z,93396.92
2024-04-24T12:00:13.802Z,93385.29
2024-04-24T12:02:44.947Z,93383.36
2024-04-24T12:05:13.481Z,93382.33
2024-04-24T12:08:34.318Z,93375.98
2024-04-24T12:11:42.388Z,93382.78
2024-04-24T12:14:19.104Z,93392.05
2024-04-24T12:17:07.391Z,93394.35
2024-04-24T12:19:54.146Z,93398.06
2024-04-24T12:22:23.126Z,93391.80
2024-04-24T12:24:53.951Z,93388.27
2024-04-24T12:27:34.970Z,93390.36
2024-04-24T12:30:07.503Z,93390.23
2024-04-24T12:32:56.172Z,93394.95
2024-04-24T12:35:40.077Z,93389.67
2024-04-24T12:38:12.332Z,93389.16
2024-04-24T12:41:16.998Z,93394.23
2024-04-24T12:43:51.574Z,93389.19
2024-04-24T12:46:19.693Z,93385.61
2024-04-24T12:48:57.702Z,93394.94
2024-04-24T12:51:46.153Z,93396.71
2024-04-24T12:54:21.202Z,93395.19
2024-04-24T12:56:54.374Z,93395.68
2024-04-24T12:59:39.594Z,93388.54
2024-04-24T13:02:14.919Z,93385.95
2024-04-24T13:04:45.628Z,93381.02
2024-04-24T13:07:17.460Z,93385.30
2024-04-24T13:09:49.343Z,93382.77
2024-04-24T13:12:23.043Z,93378.95
2024-04-24T13:15:07.993Z,93375.23
2024-04-24T13:17:45.407Z,93370.71
2024-04-24T13:20:40.175Z,93366.98
2024-04-24T13:24:11.922Z,93367.30
2024-04-24T13:28:00.869Z,93363.91
2024-04-24T13:31:05.559Z,93368.34
2024-04-24T13:34:03.491Z,93365.90
2024-04-24T13:36:37.236Z,93367.19
2024-04-24T13:39:13.302Z,93366.98
2024-04-24T13:41:52.438Z,93368.16
2024-04-24T13:44:21.518Z,93367.49
2024-04-24T13:47:01.059Z,93365.96
2024-04-24T13:49:29.981Z,93361.72
2024-04-24T13:52:29.888Z,93365.66
2024-04-24T13:54:58.292Z,93363.73
2024-04-24T13:57:36.163Z,93364.10
2024-04-24T14:00:08.093Z,93366.95
2024-04-24T14:02:54.317Z,93365.61
2024-04-24T14:05:43.213Z,93365.55
2024-04-24T14:08:59.866Z,93370.31
2024-04-24T14:12:20.229Z,93369.34
2024-04-24T14:15:10.478Z,93369.67
2024-04-24T14:18:05.853Z,93366.14
2024-04-24T14:20:37.217Z,93361.77
2024-04-24T14:23:06.134Z,93371.07
2024-04-24T14:25:35.659Z,93366.28
2024-04-24T14:28:27.567Z,93365.05
2024-04-24T14:31:04.496Z,93366.89
2024-04-24T14:33:56.638Z,93363.13
2024-04-24T14:36:45.248Z,93360.59
2024-04-24T14:39:22.184Z,93358.33
2024-04-24T14:42:26.046Z,93357.81
2024-04-24T14:45:14.996Z,93358.48
2024-04-24T14:47:56.378Z,93357.89
2024-04-24T14:50:35.149Z,93361.20
2024-04-24T14:53:16.024Z,93363.21
2024-04-24T14:55:58.495Z,93364.59
2024-04-24T14:58:29.828Z,93371.70
2024-04-24T15:01:09.823Z,93377.03
2024-04-24T15:03:41.326Z,93376.42
2024-04-24T15:06:39.534Z,93379.85
2024-04-24T15:09:36.860Z,93377.58
2024-04-24T15:13:04.572Z,93377.16
2024-04-24T15:16:06.351Z,93376.58
2024-04-24T15:18:35.246Z,93374.80
2024-04-24T15:21:07.474Z,93372.11
2024-04-24T15:24:07.952Z,93367.30
2024-04-24T15:26:41.915Z,93364.03
2024-04-24T15:29:15.467Z,93367.91
2024-04-24T15:33:03.845Z,93375.77
2024-04-24T15:36:28.771Z,93379.56
2024-04-24T15:39:11.505Z,93384.02
2024-04-24T15:42:07.743Z,93389.27
2024-04-24T15:45:37.545Z,93398.17
2024-04-24T15:48:58.124Z,93401.33
2024-04-24T15:51:43.104Z,93395.63
2024-04-24T15:54:41.579Z,93399.29
2024-04-24T15:57:16.482Z,93403.48
2024-04-24T15:59:47.880Z,93406.92
2024-04-24T16:02:49.531Z,93403.11
2024-04-24T16:06:37.748Z,93407.23
2024-04-24T16:10:26.630Z,93423.75
2024-04-24T16:14:16.514Z,93437.07
2024-04-24T16:17:36.331Z,93445.41
2024-04-24T16:20:32.594Z,93443.93
2024-04-24T16:24:08.100Z,93451.06
2024-04-24T16:26:59.568Z,93460.20
2024-04-24T16:30:03.752Z,93467.94
2024-04-24T16:33:08.733Z,93469.17
2024-04-24T16:36:17.459Z,93475.23
2024-04-24T16:39:38.355Z,93476.39
2024-04-24T16:42:47.517Z,93476.89
2024-04-24T16:46:13.627Z,93478.95
2024-04-24T16:48:54.815Z,93478.16
2024-04-24T16:52:08.900Z,93488.33
2024-04-24T16:55:04.219Z,93496.65
2024-04-24T16:57:45.547Z,93503.81
2024-04-24T17:00:47.590Z,93508.67
2024-04-24T17:03:29.680Z,93507.92
2024-04-24T17:06:51.647Z,93517.57
2024-04-24T17:09:47.335Z,93518.15
2024-04-24T17:12:26.920Z,93523.23
2024-04-24T17:15:02.124Z,93531.34
2024-04-24T17:17:59.186Z,93534.89
2024-04-24T17:21:09.574Z,93531.34
2024-04-24T17:24:01.731Z,93535.08
2024-04-24T17:27:10.530Z,93531.75
2024-04-24T17:30:07.550Z,93530.55
2024-04-24T17:33:37.620Z,93542.35
2024-04-24T17:37:02.194Z,93542.14
2024-04-24T17:40:14.453Z,93548.45
2024-04-24T17:43:13.595Z,93557.70
2024-04-24T17:47:02.427Z,93567.02
2024-04-24T17:49:48.837Z,93573.65
2024-04-24T17:53:04.801Z,93583.60
2024-04-24T17:55:56.458Z,93578.85
2024-04-24T17:59:40.482Z,93580.19
2024-04-24T18:03:08.515Z,93579.48
2024-04-24T18:06:47.752Z,93578.13
2024-04-24T18:10:36.550Z,93574.47
2024-04-24T18:14:08.324Z,93580.42
2024-04-24T18:17:49.999Z,93588.26
2024-04-24T18:21:32.596Z,93593.35
2024-04-24T18:25:16.324Z,93596.01
2024-04-24T18:29:05.472Z,93606.50
2024-04-24T18:32:54.552Z,93615.41
2024-04-24T18:36:36.581Z,93619.30
2024-04-24T18:40:25.520Z,93620.68
2024-04-24T18:44:07.651Z,93621.91
2024-04-24T18:47:21.712Z,93621.15
2024-04-24T18:50:54.004Z,93627.06
2024-04-24T18:54:15.613Z,93629.52
2024-04-24T18:57:37.073Z,93638.77
2024-04-24T19:00:46.236Z,93649.13
2024-04-24T19:04:12.557Z,93656.38
2024-04-24T19:07:33.406Z,93659.09
2024-04-24T19:10:59.729Z,93662.22
2024-04-24T19:14:31.392Z,93665.55
2024-04-24T19:17:53.946Z,93664.08
2024-04-24T19:21:31.993Z,93667.19
2024-04-24T19:24:51.097Z,93674.05
2024-04-24T19:28:30.586Z,93686.66
2024-04-24T19:32:18.457Z,93687.73
2024-04-24T19:35:59.113Z,93692.05
2024-04-24T19:39:40.181Z,93696.75
2024-04-24T19:43:28.388Z,93706.90
2024-04-24T19:47:17.596Z,93717.20
2024-04-24T19:50:49.609Z,93719.43
2024-04-24T19:54:13.099Z,93715.15
2024-04-24T19:57:36.091Z,93710.57
2024-04-24T20:01:16.476Z,93709.56
2024-04-24T20:04:48.476Z,93711.71
2024-04-24T20:08:20.377Z,93708.71
2024-04-24T20:11:53.180Z,93706.34
2024-04-24T20:15:33.840Z,93701.03
2024-04-24T20:19:03.214Z,93700.76
2024-04-24T20:22:45.362Z,93703.58
2024-04-24T20:26:14.032Z,93705.80
2024-04-24T20:29:22.639Z,93716.19
2024-04-24T20:32:13.441Z,93719.20
2024-04-24T20:35:41.012Z,93723.61
2024-04-24T20:38:24.240Z,93722.73
2024-04-24T20:41:42.355Z,93725.45
2024-04-24T20:45:04.985Z,93718.28
2024-04-24T20:48:47.268Z,93719.77
2024-04-24T20:51:43.409Z,93711.20
2024-04-24T20:55:04.745Z,93710.73
2024-04-24T20:58:16.339Z,93716.02
2024-04-24T21:01:45.213Z,93718.99
2024-04-24T21:05:17.098Z,93720.55
2024-04-24T21:08:31.158Z,93722.55
2024-04-24T21:12:03.067Z,93731.11
2024-04-24T21:15:43.538Z,93745.82
2024-04-24T21:18:57.652Z,93748.94
2024-04-24T21:22:45.792Z,93744.50
2024-04-24T21:26:29.748Z,93758.68
2024-04-24T21:30:08.633Z,93762.87
2024-04-24T21:33:38.827Z,93767.17
2024-04-24T21:36:56.402Z,93771.09
2024-04-24T21:40:28.373Z,93784.27
2024-04-24T21:43:27.696Z,93786.38
2024-04-24T21:47:01.836Z,93783.89
2024-04-24T21:50:25.939Z,93781.20
2024-04-24T21:53:35.109Z,93774.19
2024-04-24T21:56:49.291Z,93773.29
2024-04-24T22:00:18.111Z,93780.77
2024-04-24T22:03:43.040Z,93782.52
2024-04-24T22:07:05.164Z,93770.86
2024-04-24T22:10:17.582Z,93773.43
2024-04-24T22:13:39.835Z,93773.23
2024-04-24T22:17:19.147Z,93776.17
2024-04-24T22:20:54.991Z,93778.31
2024-04-24T22:24:22.533Z,93779.04
2024-04-24T22:28:05.573Z,93782.00
2024-04-24T22:31:39.983Z,93792.55
2024-04-24T22:35:08.938Z,93800.03
2024-04-24T22:37:57.430Z,93798.00
2024-04-24T22:41:45.197Z,93800.45
2024-04-24T22:45:26.907Z,93803.17
2024-04-24T22:48:41.313Z,93808.69
2024-04-24T22:52:19.636Z,93806.86
2024-04-24T22:56:08.470Z,93806.48
2024-04-24T22:59:21.530Z,93807.69
2024-04-24T23:02:21.236Z,93813.59
2024-04-24T23:05:27.779Z,93812.17
2024-04-24T23:09:06.756Z,93809.71
2024-04-24T23:11:59.925Z,93808.14
2024-04-24T23:14:56.868Z,93800.85
2024-04-24T23:17:53.965Z,93793.08
2024-04-24T23:21:10.226Z,93790.52
2024-04-24T23:24:27.623Z,93783.43
2024-04-24T23:28:25.285Z,93789.52
2024-04-24T23:32:14.296Z,93795.41
2024-04-24T23:35:36.224Z,93788.41
2024-04-24T23:39:05.212Z,93785.05
2024-04-24T23:42:42.748Z,93785.17
2024-04-24T23:45:54.121Z,93787.14
2024-04-24T23:49:28.369Z,93785.21
2024-04-24T23:52:12.128Z,93777.42
2024-04-24T23:55:41.934Z,93776.23
2024-04-24T23:58:54.397Z,93771.83
